createdAt,value
2023-01-27T00:00:54.097Z,13.90
2023-01-27T00:01:54.062Z,17.70
2023-01-27T00:02:54.090Z,14.20
2023-01-27T00:03:54.052Z,14.20
2023-01-27T00:04:53.919Z,14.10
2023-01-27T00:05:53.879Z,15.40
2023-01-27T00:06:53.832Z,15.00
2023-01-27T00:07:53.795Z,15.30
2023-01-27T00:08:53.765Z,14.80
2023-01-27T00:09:53.696Z,15.50
2023-01-27T00:10:53.650Z,14.50
2023-01-27T00:11:53.602Z,17.30
2023-01-27T00:12:53.566Z,14.60
2023-01-27T00:13:53.507Z,15.90
2023-01-27T00:14:53.465Z,17.30
2023-01-27T00:15:53.485Z,17.40
2023-01-27T00:16:53.376Z,13.70
2023-01-27T00:17:53.329Z,10.80
2023-01-27T00:18:53.284Z,14.50
2023-01-27T00:19:53.240Z,14.50
2023-01-27T00:20:53.208Z,12.00
2023-01-27T00:21:53.152Z,13.90
2023-01-27T00:22:53.112Z,16.40
2023-01-27T00:23:53.088Z,14.50
2023-01-27T00:24:53.026Z,13.70
2023-01-27T00:25:52.972Z,14.90
2023-01-27T00:26:52.924Z,12.50
2023-01-27T00:27:52.881Z,13.20
2023-01-27T00:28:52.845Z,14.30
2023-01-27T00:29:52.799Z,13.40
2023-01-27T00:30:52.902Z,14.30
2023-01-27T00:31:52.725Z,12.00
2023-01-27T00:32:52.658Z,12.40
2023-01-27T00:33:52.606Z,14.90
2023-01-27T00:34:52.567Z,12.40
2023-01-27T00:35:52.531Z,10.20
2023-01-27T00:36:52.486Z,13.90
2023-01-27T00:37:52.428Z,13.90
2023-01-27T00:38:52.391Z,13.60
2023-01-27T00:39:52.350Z,14.40
2023-01-27T00:40:52.296Z,15.80
2023-01-27T00:41:52.257Z,13.60
2023-01-27T00:42:52.225Z,13.20
2023-01-27T00:43:52.164Z,14.70
2023-01-27T00:44:52.128Z,15.10
2023-01-27T00:45:52.067Z,12.80
2023-01-27T00:46:52.159Z,12.70
2023-01-27T00:47:51.980Z,13.70
2023-01-27T00:48:51.956Z,11.90
2023-01-27T00:49:51.899Z,12.90
2023-01-27T00:50:51.846Z,13.50
2023-01-27T00:51:51.804Z,13.90
2023-01-27T00:52:51.762Z,12.70
2023-01-27T00:53:51.717Z,12.20
2023-01-27T00:54:51.685Z,12.40
2023-01-27T00:55:51.618Z,15.30
2023-01-27T00:56:51.580Z,13.60
2023-01-27T00:57:51.528Z,13.80
2023-01-27T00:58:51.484Z,10.60
2023-01-27T00:59:51.454Z,13.60
2023-01-27T01:00:51.410Z,11.80
2023-01-27T01:01:51.411Z,13.30
2023-01-27T01:02:51.369Z,11.20
2023-01-27T01:03:51.259Z,14.50
2023-01-27T01:04:51.218Z,13.40
2023-01-27T01:05:51.165Z,10.30
2023-01-27T01:06:51.142Z,13.70
2023-01-27T01:07:51.080Z,14.00
2023-01-27T01:08:51.038Z,13.60
2023-01-27T01:09:50.990Z,15.20
2023-01-27T01:10:50.961Z,13.30
2023-01-27T01:11:50.903Z,13.30
2023-01-27T01:12:50.868Z,15.10
2023-01-27T01:13:50.832Z,13.60
2023-01-27T01:14:50.780Z,12.30
2023-01-27T01:15:50.755Z,13.30
2023-01-27T01:16:50.691Z,14.20
2023-01-27T01:17:50.645Z,15.30
2023-01-27T01:18:50.618Z,14.70
2023-01-27T01:19:50.551Z,16.60
2023-01-27T01:20:50.506Z,16.90
2023-01-27T01:21:50.458Z,17.70
2023-01-27T01:22:50.411Z,15.20
2023-01-27T01:23:50.458Z,16.00
2023-01-27T01:24:50.323Z,17.10
2023-01-27T01:25:50.304Z,16.50
2023-01-27T01:26:50.230Z,16.20
2023-01-27T01:27:50.183Z,19.20
2023-01-27T01:28:50.142Z,16.70
2023-01-27T01:29:50.091Z,16.70
2023-01-27T01:30:50.079Z,15.30
2023-01-27T01:31:50.039Z,15.40
2023-01-27T01:32:49.969Z,14.60
2023-01-27T01:33:49.925Z,15.80
2023-01-27T01:34:49.870Z,16.00
2023-01-27T01:35:49.827Z,15.40
2023-01-27T01:36:49.783Z,15.80
2023-01-27T01:37:49.752Z,15.70
2023-01-27T01:38:49.702Z,14.50
2023-01-27T01:39:49.644Z,15.80
2023-01-27T01:40:49.619Z,15.60
2023-01-27T01:41:49.555Z,14.30
2023-01-27T01:42:49.531Z,14.20
2023-01-27T01:43:49.463Z,16.10
2023-01-27T01:44:49.435Z,15.80
2023-01-27T01:45:49.388Z,16.00
2023-01-27T01:46:49.383Z,16.00
2023-01-27T01:47:49.299Z,16.50
2023-01-27T01:48:49.242Z,13.70
2023-01-27T01:49:49.201Z,15.10
2023-01-27T01:50:49.152Z,13.40
2023-01-27T01:51:49.109Z,15.20
2023-01-27T01:52:49.064Z,15.10
2023-01-27T01:53:49.031Z,13.00
2023-01-27T01:54:48.973Z,13.50
2023-01-27T01:55:48.931Z,16.10
2023-01-27T01:56:48.896Z,14.90
2023-01-27T01:57:48.852Z,16.10
2023-01-27T01:58:48.801Z,13.20
2023-01-27T01:59:48.764Z,16.60
2023-01-27T02:00:48.748Z,14.20
2023-01-27T02:01:48.659Z,14.00
2023-01-27T02:02:48.726Z,14.60
2023-01-27T02:03:48.578Z,12.50
2023-01-27T02:04:48.524Z,14.00
2023-01-27T02:05:48.489Z,14.50
2023-01-27T02:06:48.455Z,13.90
2023-01-27T02:07:48.387Z,13.30
2023-01-27T02:08:48.366Z,14.80
2023-01-27T02:09:48.298Z,13.60
2023-01-27T02:10:48.262Z,14.20
2023-01-27T02:11:48.221Z,15.40
2023-01-27T02:12:48.197Z,13.20
2023-01-27T02:13:48.116Z,12.40
2023-01-27T02:14:48.080Z,11.90
2023-01-27T02:15:48.043Z,16.40
2023-01-27T02:16:48.034Z,14.50
2023-01-27T02:17:47.935Z,14.90
2023-01-27T02:18:47.892Z,15.70
2023-01-27T02:19:47.846Z,15.90
2023-01-27T02:20:47.806Z,15.90
2023-01-27T02:21:49.664Z,17.30
2023-01-27T02:22:47.742Z,16.40
2023-01-27T02:23:47.666Z,18.10
2023-01-27T02:24:47.627Z,16.90
2023-01-27T02:25:47.583Z,14.90
2023-01-27T02:26:47.541Z,17.00
2023-01-27T02:27:47.486Z,16.40
2023-01-27T02:28:47.455Z,16.10
2023-01-27T02:29:47.401Z,17.80
2023-01-27T02:30:47.482Z,17.70
2023-01-27T02:31:47.525Z,19.90
2023-01-27T02:32:47.274Z,19.70
2023-01-27T02:33:47.214Z,18.50
2023-01-27T02:34:47.187Z,16.90
2023-01-27T02:35:47.136Z,19.90
2023-01-27T02:36:47.079Z,19.80
2023-01-27T02:37:47.033Z,17.50
2023-01-27T02:38:46.997Z,18.20
2023-01-27T02:39:46.947Z,15.80
2023-01-27T02:40:46.933Z,16.10
2023-01-27T02:41:46.852Z,15.70
2023-01-27T02:42:46.808Z,17.00
2023-01-27T02:43:46.764Z,16.50
2023-01-27T02:44:46.735Z,14.40
2023-01-27T02:45:46.674Z,13.50
2023-01-27T02:46:46.643Z,13.80
2023-01-27T02:47:46.593Z,12.40
2023-01-27T02:48:46.541Z,12.50
2023-01-27T02:49:46.492Z,12.40
2023-01-27T02:50:46.465Z,13.40
2023-01-27T02:51:46.402Z,11.90
2023-01-27T02:52:46.370Z,12.60
2023-01-27T02:53:46.312Z,14.00
2023-01-27T02:54:46.284Z,14.30
2023-01-27T02:55:46.230Z,14.50
2023-01-27T02:56:46.193Z,13.30
2023-01-27T02:57:46.144Z,13.20
2023-01-27T02:58:46.090Z,14.50
2023-01-27T02:59:46.041Z,14.10
2023-01-27T03:00:46.013Z,13.40
2023-01-27T03:01:46.001Z,13.20
2023-01-27T03:02:45.963Z,13.30
2023-01-27T03:03:45.868Z,13.80
2023-01-27T03:04:45.816Z,12.90
2023-01-27T03:05:45.771Z,14.90
2023-01-27T03:06:45.724Z,11.20
2023-01-27T03:07:45.697Z,12.40
2023-01-27T03:08:45.643Z,11.50
2023-01-27T03:09:45.593Z,13.00
2023-01-27T03:10:45.544Z,11.80
2023-01-27T03:11:45.509Z,13.20
2023-01-27T03:12:45.450Z,13.50
2023-01-27T03:13:45.420Z,13.50
2023-01-27T03:14:45.356Z,15.10
2023-01-27T03:15:45.336Z,15.00
2023-01-27T03:16:45.267Z,15.30
2023-01-27T03:17:45.233Z,14.70
2023-01-27T03:18:45.179Z,16.20
2023-01-27T03:19:45.143Z,14.80
2023-01-27T03:20:45.114Z,13.80
2023-01-27T03:21:45.038Z,15.80
2023-01-27T03:22:45.012Z,15.10
2023-01-27T03:23:44.959Z,15.70
2023-01-27T03:24:44.903Z,15.00
2023-01-27T03:25:44.888Z,15.10
2023-01-27T03:26:44.813Z,14.10
2023-01-27T03:27:44.774Z,14.80
2023-01-27T03:28:44.722Z,13.00
2023-01-27T03:29:44.690Z,16.10
2023-01-27T03:30:44.686Z,14.00
2023-01-27T03:31:44.669Z,13.60
2023-01-27T03:32:44.539Z,14.00
2023-01-27T03:33:44.495Z,12.90
2023-01-27T03:34:44.447Z,12.00
2023-01-27T03:35:44.408Z,12.40
2023-01-27T03:36:44.360Z,12.00
2023-01-27T03:37:44.332Z,12.40
2023-01-27T03:38:44.274Z,11.90
2023-01-27T03:39:44.230Z,12.40
2023-01-27T03:40:44.182Z,13.70
2023-01-27T03:41:44.143Z,11.80
2023-01-27T03:42:44.090Z,12.30
2023-01-27T03:43:44.064Z,13.00
2023-01-27T03:44:44.001Z,10.90
2023-01-27T03:45:43.954Z,11.00
2023-01-27T03:46:43.920Z,11.50
2023-01-27T03:47:43.872Z,11.90
2023-01-27T03:48:43.830Z,11.80
2023-01-27T03:49:43.802Z,12.00
2023-01-27T03:50:43.809Z,11.60
2023-01-27T03:51:43.684Z,10.70
2023-01-27T03:52:43.631Z,10.80
2023-01-27T03:53:43.612Z,10.70
2023-01-27T03:54:43.539Z,11.30
2023-01-27T03:55:43.494Z,10.60
2023-01-27T03:56:43.449Z,10.40
2023-01-27T03:57:43.409Z,10.90
2023-01-27T03:58:43.362Z,10.40
2023-01-27T03:59:43.340Z,10.10
2023-01-27T04:00:43.283Z,9.80
2023-01-27T04:01:43.265Z,10.30
2023-01-27T04:02:43.231Z,10.10
2023-01-27T04:03:43.131Z,10.40
2023-01-27T04:04:43.085Z,9.50
2023-01-27T04:05:43.076Z,9.90
2023-01-27T04:06:42.994Z,10.90
2023-01-27T04:07:42.950Z,9.30
2023-01-27T04:08:42.904Z,10.70
2023-01-27T04:09:42.862Z,9.20
2023-01-27T04:10:42.809Z,10.10
2023-01-27T04:11:42.793Z,8.80
2023-01-27T04:12:42.730Z,8.90
2023-01-27T04:13:42.676Z,9.00
2023-01-27T04:14:42.631Z,9.70
2023-01-27T04:15:42.602Z,9.90
2023-01-27T04:16:42.556Z,9.80
2023-01-27T04:17:42.508Z,10.20
2023-01-27T04:18:42.465Z,10.00
2023-01-27T04:19:42.415Z,9.20
2023-01-27T04:20:42.356Z,9.30
2023-01-27T04:21:42.325Z,9.90
2023-01-27T04:22:42.267Z,11.00
2023-01-27T04:23:42.236Z,9.40
2023-01-27T04:24:42.186Z,9.40
2023-01-27T04:25:42.136Z,10.20
2023-01-27T04:26:42.089Z,10.40
2023-01-27T04:27:42.046Z,10.10
2023-01-27T04:28:44.484Z,10.70
2023-01-27T04:29:41.971Z,10.50
2023-01-27T04:30:41.942Z,10.40
2023-01-27T04:31:41.874Z,11.30
2023-01-27T04:32:41.810Z,12.00
2023-01-27T04:33:41.798Z,9.60
2023-01-27T04:34:41.725Z,10.70
2023-01-27T04:35:41.674Z,11.80
2023-01-27T04:36:41.645Z,12.00
2023-01-27T04:37:41.606Z,11.30
2023-01-27T04:38:41.538Z,11.70
2023-01-27T04:39:41.509Z,13.30
2023-01-27T04:40:41.451Z,12.20
2023-01-27T04:41:41.409Z,12.20
2023-01-27T04:42:41.355Z,12.60
2023-01-27T04:43:41.327Z,13.10
2023-01-27T04:44:41.264Z,12.70
2023-01-27T04:45:41.263Z,12.40
2023-01-27T04:46:41.176Z,12.50
2023-01-27T04:47:41.132Z,12.90
2023-01-27T04:48:41.092Z,12.90
2023-01-27T04:49:50.485Z,13.40
2023-01-27T04:50:40.995Z,15.60
2023-01-27T04:51:40.949Z,14.60
2023-01-27T04:52:40.909Z,16.00
2023-01-27T04:53:40.864Z,14.90
2023-01-27T04:54:40.807Z,15.60
2023-01-27T04:55:40.766Z,14.50
2023-01-27T04:56:40.730Z,14.90
2023-01-27T04:57:40.677Z,15.70
2023-01-27T04:58:40.625Z,15.20
2023-01-27T04:59:40.582Z,17.20
2023-01-27T05:00:40.551Z,15.10
2023-01-27T05:01:40.523Z,15.90
2023-01-27T05:02:40.492Z,18.30
2023-01-27T05:03:40.406Z,16.60
2023-01-27T05:04:40.352Z,16.50
2023-01-27T05:05:40.309Z,16.80
2023-01-27T05:06:40.259Z,17.40
2023-01-27T05:07:40.222Z,17.80
2023-01-27T05:08:40.195Z,16.50
2023-01-27T05:09:40.129Z,16.60
2023-01-27T05:10:40.092Z,15.30
2023-01-27T05:11:40.045Z,17.60
2023-01-27T05:12:39.991Z,16.50
2023-01-27T05:13:39.944Z,17.90
2023-01-27T05:14:39.896Z,16.30
2023-01-27T05:15:39.908Z,17.70
2023-01-27T05:16:39.894Z,16.10
2023-01-27T05:17:39.768Z,17.90
2023-01-27T05:18:39.715Z,15.70
2023-01-27T05:19:39.670Z,16.10
2023-01-27T05:20:39.623Z,16.20
2023-01-27T05:21:39.579Z,17.00
2023-01-27T05:22:39.554Z,15.90
2023-01-27T05:23:39.493Z,15.80
2023-01-27T05:24:39.445Z,17.90
2023-01-27T05:25:39.403Z,17.80
2023-01-27T05:26:39.363Z,17.60
2023-01-27T05:27:39.312Z,17.60
2023-01-27T05:28:39.273Z,16.80
2023-01-27T05:29:39.219Z,18.00
2023-01-27T05:30:39.269Z,16.80
2023-01-27T05:31:39.248Z,17.60
2023-01-27T05:32:39.076Z,15.90
2023-01-27T05:33:39.055Z,18.90
2023-01-27T05:34:38.990Z,18.80
2023-01-27T05:35:38.944Z,21.40
2023-01-27T05:36:38.912Z,18.90
2023-01-27T05:37:38.871Z,19.20
2023-01-27T05:38:38.811Z,23.70
2023-01-27T05:39:38.784Z,20.40
2023-01-27T05:40:38.718Z,19.80
2023-01-27T05:41:38.674Z,25.80
2023-01-27T05:42:38.625Z,19.40
2023-01-27T05:43:38.588Z,16.80
2023-01-27T05:44:38.531Z,20.20
2023-01-27T05:45:38.510Z,17.30
2023-01-27T05:46:38.492Z,16.50
2023-01-27T05:47:38.401Z,19.20
2023-01-27T05:48:38.351Z,17.80
2023-01-27T05:49:38.310Z,15.90
2023-01-27T05:50:38.264Z,16.60
2023-01-27T05:51:38.232Z,16.10
2023-01-27T05:52:38.179Z,17.00
2023-01-27T05:53:38.131Z,15.20
2023-01-27T05:54:38.084Z,16.40
2023-01-27T05:55:38.042Z,15.90
2023-01-27T05:56:37.999Z,15.60
2023-01-27T05:57:37.960Z,15.20
2023-01-27T05:58:37.929Z,17.20
2023-01-27T05:59:37.859Z,14.80
2023-01-27T06:00:37.818Z,17.20
2023-01-27T06:01:37.873Z,15.70
2023-01-27T06:02:37.776Z,17.10
2023-01-27T06:03:37.695Z,15.80
2023-01-27T06:04:37.634Z,14.90
2023-01-27T06:05:37.586Z,15.10
2023-01-27T06:06:37.543Z,16.00
2023-01-27T06:07:37.511Z,15.00
2023-01-27T06:08:37.457Z,16.10
2023-01-27T06:09:37.408Z,15.10
2023-01-27T06:10:37.418Z,16.60
2023-01-27T06:11:37.316Z,17.00
2023-01-27T06:12:37.268Z,14.90
2023-01-27T06:13:37.238Z,15.20
2023-01-27T06:14:37.230Z,15.30
2023-01-27T06:15:37.137Z,17.10
2023-01-27T06:16:37.125Z,15.00
2023-01-27T06:17:37.041Z,15.40
2023-01-27T06:18:36.997Z,15.50
2023-01-27T06:19:36.969Z,14.60
2023-01-27T06:20:36.908Z,14.30
2023-01-27T06:21:36.859Z,14.80
2023-01-27T06:22:36.816Z,14.70
2023-01-27T06:23:36.899Z,14.90
2023-01-27T06:24:36.752Z,15.10
2023-01-27T06:25:36.700Z,15.80
2023-01-27T06:26:36.699Z,16.20
2023-01-27T06:27:36.588Z,14.00
2023-01-27T06:28:36.555Z,14.20
2023-01-27T06:29:36.503Z,14.30
2023-01-27T06:30:36.473Z,13.50
2023-01-27T06:31:36.585Z,14.40
2023-01-27T06:32:36.367Z,13.40
2023-01-27T06:33:36.320Z,14.60
2023-01-27T06:34:36.292Z,15.30
2023-01-27T06:35:36.229Z,14.10
2023-01-27T06:36:36.189Z,14.40
2023-01-27T06:37:36.225Z,14.60
2023-01-27T06:38:36.101Z,14.50
2023-01-27T06:39:36.051Z,13.70
2023-01-27T06:40:36.010Z,13.70
2023-01-27T06:41:35.962Z,15.90
2023-01-27T06:42:35.917Z,13.80
2023-01-27T06:43:35.900Z,14.20
2023-01-27T06:44:35.825Z,14.40
2023-01-27T06:45:35.784Z,14.00
2023-01-27T06:46:35.762Z,14.70
2023-01-27T06:47:35.695Z,14.80
2023-01-27T06:48:35.655Z,14.20
2023-01-27T06:49:35.624Z,14.70
2023-01-27T06:50:35.554Z,14.40
2023-01-27T06:51:36.022Z,15.00
2023-01-27T06:52:35.468Z,14.10
2023-01-27T06:53:35.424Z,15.20
2023-01-27T06:54:35.405Z,14.30
2023-01-27T06:55:35.337Z,14.90
2023-01-27T06:56:35.299Z,15.10
2023-01-27T06:57:35.242Z,14.70
2023-01-27T06:58:35.192Z,14.30
2023-01-27T06:59:35.153Z,15.50
2023-01-27T07:00:35.124Z,15.10
2023-01-27T07:01:35.103Z,15.00
2023-01-27T07:02:35.060Z,16.20
2023-01-27T07:03:34.977Z,14.80
2023-01-27T07:04:34.926Z,14.10
2023-01-27T07:05:34.883Z,14.20
2023-01-27T07:06:34.846Z,15.60
2023-01-27T07:07:34.793Z,14.70
2023-01-27T07:08:34.749Z,14.50
2023-01-27T07:09:50.586Z,14.50
2023-01-27T07:10:34.656Z,14.20
2023-01-27T07:11:34.634Z,14.90
2023-01-27T07:12:34.568Z,15.20
2023-01-27T07:13:34.534Z,15.30
2023-01-27T07:14:34.475Z,14.50
2023-01-27T07:15:34.434Z,14.40
2023-01-27T07:16:34.433Z,14.60
2023-01-27T07:17:34.396Z,14.40
2023-01-27T07:18:34.316Z,14.70
2023-01-27T07:19:35.221Z,14.60
2023-01-27T07:20:34.222Z,14.80
2023-01-27T07:21:34.182Z,14.70
2023-01-27T07:22:34.118Z,14.70
2023-01-27T07:23:34.077Z,14.80
2023-01-27T07:24:34.033Z,14.80
2023-01-27T07:25:33.993Z,14.70
2023-01-27T07:26:33.943Z,14.90
2023-01-27T07:27:33.955Z,14.10
2023-01-27T07:28:33.853Z,14.30
2023-01-27T07:29:33.824Z,14.60
2023-01-27T07:30:33.855Z,14.30
2023-01-27T07:31:33.742Z,14.20
2023-01-27T07:32:33.673Z,14.60
2023-01-27T07:33:33.633Z,14.00
2023-01-27T07:34:33.581Z,15.00
2023-01-27T07:35:33.534Z,15.00
2023-01-27T07:36:33.512Z,14.70
2023-01-27T07:37:33.847Z,15.40
2023-01-27T07:38:33.406Z,14.80
2023-01-27T07:39:33.368Z,15.00
2023-01-27T07:40:33.312Z,14.20
2023-01-27T07:41:33.266Z,15.10
2023-01-27T07:42:33.224Z,14.90
2023-01-27T07:43:33.181Z,13.90
2023-01-27T07:44:33.141Z,14.70
2023-01-27T07:45:33.126Z,14.40
2023-01-27T07:46:33.045Z,14.50
2023-01-27T07:47:32.999Z,13.90
2023-01-27T07:48:32.958Z,14.10
2023-01-27T07:49:32.922Z,14.60
2023-01-27T07:50:32.874Z,14.20
2023-01-27T07:51:32.820Z,15.00
2023-01-27T07:52:32.780Z,14.90
2023-01-27T07:53:32.723Z,14.50
2023-01-27T07:54:32.688Z,14.20
2023-01-27T07:55:32.646Z,14.50
2023-01-27T07:56:32.601Z,14.20
2023-01-27T07:57:32.547Z,14.50
2023-01-27T07:58:32.519Z,13.50
2023-01-27T07:59:32.455Z,14.20
2023-01-27T08:00:32.419Z,14.00
2023-01-27T08:01:32.368Z,14.20
2023-01-27T08:02:32.328Z,13.80
2023-01-27T08:03:32.311Z,13.60
2023-01-27T08:04:43.463Z,13.50
2023-01-27T08:05:32.191Z,13.90
2023-01-27T08:06:32.154Z,14.10
2023-01-27T08:07:32.099Z,14.30
2023-01-27T08:08:32.063Z,14.20
2023-01-27T08:09:32.017Z,12.90
2023-01-27T08:10:31.982Z,13.90
2023-01-27T08:11:31.920Z,12.90
2023-01-27T08:12:31.882Z,13.00
2023-01-27T08:13:31.828Z,12.90
2023-01-27T08:14:31.784Z,13.40
2023-01-27T08:15:31.751Z,12.80
2023-01-27T08:16:31.740Z,13.40
2023-01-27T08:17:31.662Z,12.50
2023-01-27T08:18:31.614Z,12.80
2023-01-27T08:19:31.578Z,12.90
2023-01-27T08:20:31.555Z,12.60
2023-01-27T08:21:31.474Z,12.40
2023-01-27T08:22:31.430Z,12.30
2023-01-27T08:23:31.398Z,12.40
2023-01-27T08:24:31.335Z,12.00
2023-01-27T08:25:31.298Z,11.10
2023-01-27T08:26:31.251Z,11.20
2023-01-27T08:27:31.209Z,10.80
2023-01-27T08:28:31.161Z,11.50
2023-01-27T08:29:31.130Z,10.70
2023-01-27T08:30:31.111Z,11.30
2023-01-27T08:31:31.068Z,10.60
2023-01-27T08:32:30.986Z,11.10
2023-01-27T08:33:30.935Z,10.50
2023-01-27T08:34:30.899Z,11.20
2023-01-27T08:35:30.860Z,10.20
2023-01-27T08:36:30.839Z,10.40
2023-01-27T08:37:30.756Z,11.00
2023-01-27T08:38:30.720Z,11.20
2023-01-27T08:39:30.670Z,11.40
2023-01-27T08:40:30.633Z,11.00
2023-01-27T08:41:30.588Z,11.70
2023-01-27T08:42:30.533Z,10.90
2023-01-27T08:43:30.494Z,10.70
2023-01-27T08:44:30.467Z,10.80
2023-01-27T08:45:30.402Z,11.10
2023-01-27T08:46:30.367Z,11.50
2023-01-27T08:47:30.322Z,11.30
2023-01-27T08:48:30.277Z,11.50
2023-01-27T08:49:30.230Z,12.20
2023-01-27T08:50:30.186Z,11.20
2023-01-27T08:51:30.129Z,11.80
2023-01-27T08:52:30.105Z,11.70
2023-01-27T08:53:30.058Z,12.20
2023-01-27T08:54:30.006Z,11.70
2023-01-27T08:55:29.955Z,12.00
2023-01-27T08:56:29.924Z,12.50
2023-01-27T08:57:29.865Z,12.60
2023-01-27T08:58:29.848Z,13.40
2023-01-27T08:59:29.789Z,12.40
2023-01-27T09:00:29.747Z,12.90
2023-01-27T09:01:29.777Z,13.20
2023-01-27T09:02:29.644Z,13.20
2023-01-27T09:03:29.605Z,13.00
2023-01-27T09:04:29.590Z,12.50
2023-01-27T09:05:29.524Z,13.20
2023-01-27T09:06:29.479Z,13.00
2023-01-27T09:07:29.427Z,12.30
2023-01-27T09:08:29.390Z,12.10
2023-01-27T09:09:29.337Z,11.70
2023-01-27T09:10:29.299Z,12.10
2023-01-27T09:11:29.259Z,12.10
2023-01-27T09:12:29.213Z,12.20
2023-01-27T09:13:29.175Z,12.50
2023-01-27T09:14:29.115Z,13.00
2023-01-27T09:15:29.078Z,13.10
2023-01-27T09:16:29.110Z,12.60
2023-01-27T09:17:28.988Z,12.80
2023-01-27T09:18:28.949Z,12.90
2023-01-27T09:19:28.903Z,12.90
2023-01-27T09:20:28.861Z,12.60
2023-01-27T09:21:28.805Z,12.50
2023-01-27T09:22:28.778Z,12.30
2023-01-27T09:23:28.715Z,13.20
2023-01-27T09:24:28.723Z,12.80
2023-01-27T09:25:28.629Z,13.40
2023-01-27T09:26:28.604Z,13.20
2023-01-27T09:27:38.686Z,13.40
2023-01-27T09:28:28.529Z,13.30
2023-01-27T09:29:28.471Z,12.60
2023-01-27T09:30:28.414Z,12.20
2023-01-27T09:31:28.541Z,12.00
2023-01-27T09:32:28.334Z,12.90
2023-01-27T09:33:28.286Z,12.90
2023-01-27T09:34:28.234Z,12.50
2023-01-27T09:35:28.187Z,13.00
2023-01-27T09:36:28.146Z,12.20
2023-01-27T09:37:28.104Z,12.90
2023-01-27T09:38:28.124Z,12.90
2023-01-27T09:39:28.014Z,13.50
2023-01-27T09:40:27.973Z,13.00
2023-01-27T09:41:27.928Z,13.30
2023-01-27T09:42:27.895Z,13.40
2023-01-27T09:43:27.834Z,13.10
2023-01-27T09:44:27.817Z,13.90
2023-01-27T09:45:27.746Z,12.70
2023-01-27T09:46:27.758Z,14.10
2023-01-27T09:47:27.657Z,13.80
2023-01-27T09:48:27.619Z,12.90
2023-01-27T09:49:27.577Z,12.40
2023-01-27T09:50:27.559Z,13.00
2023-01-27T09:51:27.482Z,13.30
2023-01-27T09:52:41.851Z,13.30
2023-01-27T09:53:27.402Z,13.40
2023-01-27T09:54:27.360Z,13.30
2023-01-27T09:55:27.308Z,13.30
2023-01-27T09:56:27.274Z,13.40
2023-01-27T09:57:27.222Z,13.30
2023-01-27T09:58:27.179Z,13.20
2023-01-27T09:59:27.132Z,13.60
2023-01-27T10:00:27.101Z,13.60
2023-01-27T10:01:27.077Z,13.90
2023-01-27T10:02:27.009Z,13.60
2023-01-27T10:03:26.959Z,13.60
2023-01-27T10:04:26.933Z,13.30
2023-01-27T10:05:26.869Z,14.30
2023-01-27T10:06:26.832Z,13.20
2023-01-27T10:07:26.786Z,13.80
2023-01-27T10:08:26.748Z,13.60
2023-01-27T10:09:26.694Z,12.50
2023-01-27T10:10:26.676Z,12.20
2023-01-27T10:11:26.631Z,12.20
2023-01-27T10:12:26.572Z,12.00
2023-01-27T10:13:26.525Z,12.10
2023-01-27T10:14:26.481Z,12.10
2023-01-27T10:15:26.437Z,11.70
2023-01-27T10:16:26.472Z,11.70
2023-01-27T10:17:26.359Z,10.90
2023-01-27T10:18:26.313Z,10.80
2023-01-27T10:19:26.263Z,11.00
2023-01-27T10:20:26.225Z,10.40
2023-01-27T10:21:26.181Z,10.70
2023-01-27T10:22:26.166Z,10.40
2023-01-27T10:23:26.091Z,10.00
2023-01-27T10:24:26.093Z,11.10
2023-01-27T10:25:26.013Z,10.20
2023-01-27T10:26:25.967Z,10.10
2023-01-27T10:27:25.927Z,9.60
2023-01-27T10:28:25.898Z,9.20
2023-01-27T10:29:25.838Z,9.40
2023-01-27T10:30:25.799Z,9.50
2023-01-27T10:31:25.771Z,9.40
2023-01-27T10:32:25.717Z,9.10
2023-01-27T10:33:27.776Z,8.60
2023-01-27T10:34:25.628Z,8.50
2023-01-27T10:35:25.620Z,8.60
2023-01-27T10:36:25.544Z,8.70
2023-01-27T10:37:25.522Z,8.70
2023-01-27T10:38:25.478Z,8.70
2023-01-27T10:39:25.415Z,8.40
2023-01-27T10:40:25.378Z,8.00
2023-01-27T10:41:25.331Z,8.30
2023-01-27T10:42:25.308Z,8.60
2023-01-27T10:43:25.246Z,8.80
2023-01-27T10:44:25.225Z,8.50
2023-01-27T10:45:25.186Z,8.60
2023-01-27T10:46:25.173Z,8.90
2023-01-27T10:47:25.093Z,9.20
2023-01-27T10:48:25.053Z,9.00
2023-01-27T10:49:24.996Z,9.20
2023-01-27T10:50:32.523Z,9.20
2023-01-27T10:51:24.913Z,9.00
2023-01-27T10:52:24.875Z,9.10
2023-01-27T10:53:24.827Z,8.50
2023-01-27T10:54:24.799Z,8.80
2023-01-27T10:55:24.759Z,8.00
2023-01-27T10:56:24.712Z,8.10
2023-01-27T10:57:24.663Z,8.20
2023-01-27T10:58:24.618Z,7.60
2023-01-27T10:59:24.577Z,7.40
2023-01-27T11:00:54.826Z,8.00
2023-01-27T11:01:25.283Z,7.80
2023-01-27T11:02:24.485Z,7.30
2023-01-27T11:03:24.422Z,8.20
2023-01-27T11:04:24.417Z,7.70
2023-01-27T11:05:24.345Z,8.40
2023-01-27T11:06:24.316Z,8.30
2023-01-27T11:07:24.258Z,7.90
2023-01-27T11:08:24.229Z,7.80
2023-01-27T11:09:24.196Z,8.60
2023-01-27T11:10:24.142Z,8.40
2023-01-27T11:11:24.093Z,8.20
2023-01-27T11:12:24.053Z,8.30
2023-01-27T11:13:24.005Z,8.00
2023-01-27T11:14:23.993Z,8.80
2023-01-27T11:15:23.920Z,8.90
2023-01-27T11:16:23.901Z,9.10
2023-01-27T11:17:23.878Z,9.20
2023-01-27T11:18:23.824Z,9.10
2023-01-27T11:19:23.773Z,9.10
2023-01-27T11:20:23.723Z,9.80
2023-01-27T11:21:23.673Z,9.70
2023-01-27T11:22:23.713Z,10.30
2023-01-27T11:23:23.589Z,10.80
2023-01-27T11:24:23.608Z,9.90
2023-01-27T11:25:23.528Z,10.50
2023-01-27T11:26:23.963Z,10.70
2023-01-27T11:27:23.427Z,10.80
2023-01-27T11:28:23.385Z,10.80
2023-01-27T11:29:23.360Z,10.90
2023-01-27T11:30:23.380Z,10.70
2023-01-27T11:31:23.375Z,11.20
2023-01-27T11:32:23.220Z,11.10
2023-01-27T11:33:23.179Z,11.10
2023-01-27T11:34:23.141Z,11.30
2023-01-27T11:35:23.087Z,11.70
2023-01-27T11:36:23.059Z,10.50
2023-01-27T11:37:23.150Z,11.80
2023-01-27T11:38:22.967Z,11.30
2023-01-27T11:39:22.916Z,11.10
2023-01-27T11:40:22.890Z,11.80
2023-01-27T11:41:22.855Z,11.60
2023-01-27T11:42:22.815Z,11.40
2023-01-27T11:43:22.756Z,11.40
2023-01-27T11:44:22.735Z,11.60
2023-01-27T11:45:22.690Z,12.00
2023-01-27T11:46:22.634Z,11.20
2023-01-27T11:47:22.595Z,11.20
2023-01-27T11:48:23.607Z,11.30
2023-01-27T11:49:22.511Z,11.40
2023-01-27T11:50:22.449Z,11.40
2023-01-27T11:51:22.405Z,12.00
2023-01-27T11:52:22.377Z,12.30
2023-01-27T11:53:22.341Z,12.10
2023-01-27T11:54:22.318Z,12.40
2023-01-27T11:55:22.246Z,11.60
2023-01-27T11:56:22.200Z,11.90
2023-01-27T11:57:22.238Z,12.60
2023-01-27T11:58:22.114Z,12.00
2023-01-27T11:59:22.090Z,11.90
2023-01-27T12:00:22.027Z,12.00
2023-01-27T12:01:21.979Z,11.80
2023-01-27T12:02:21.942Z,12.10
2023-01-27T12:03:22.038Z,12.40
2023-01-27T12:04:21.920Z,11.60
2023-01-27T12:05:21.827Z,11.70
2023-01-27T12:06:21.776Z,11.80
2023-01-27T12:07:21.726Z,12.30
2023-01-27T12:08:21.682Z,11.80
2023-01-27T12:09:21.638Z,12.10
2023-01-27T12:10:21.726Z,12.60
2023-01-27T12:11:21.555Z,12.80
2023-01-27T12:12:21.521Z,12.60
2023-01-27T12:13:21.476Z,12.70
2023-01-27T12:14:21.425Z,12.60
2023-01-27T12:15:21.405Z,12.10
2023-01-27T12:16:21.434Z,12.90
2023-01-27T12:17:21.306Z,12.90
2023-01-27T12:18:21.253Z,13.60
2023-01-27T12:19:21.211Z,12.80
2023-01-27T12:20:21.180Z,12.80
2023-01-27T12:21:21.125Z,13.00
2023-01-27T12:22:21.101Z,12.60
2023-01-27T12:23:21.044Z,12.60
2023-01-27T12:24:21.040Z,13.30
2023-01-27T12:25:20.979Z,12.90
2023-01-27T12:26:20.908Z,13.00
2023-01-27T12:27:20.879Z,12.50
2023-01-27T12:28:20.822Z,12.10
2023-01-27T12:29:20.787Z,13.10
2023-01-27T12:30:20.746Z,12.80
2023-01-27T12:31:20.906Z,13.20
2023-01-27T12:32:20.661Z,12.90
2023-01-27T12:33:20.654Z,12.80
2023-01-27T12:34:20.564Z,12.30
2023-01-27T12:35:20.524Z,12.70
2023-01-27T12:36:20.482Z,12.60
2023-01-27T12:37:20.459Z,13.00
2023-01-27T12:38:20.397Z,13.60
2023-01-27T12:39:20.352Z,13.30
2023-01-27T12:40:20.311Z,12.70
2023-01-27T12:41:20.265Z,13.40
2023-01-27T12:42:20.225Z,12.20
2023-01-27T12:43:20.245Z,13.00
2023-01-27T12:44:20.140Z,12.20
2023-01-27T12:45:20.097Z,12.70
2023-01-27T12:46:20.086Z,13.00
2023-01-27T12:47:20.031Z,12.50
2023-01-27T12:48:19.967Z,12.40
2023-01-27T12:49:19.936Z,12.90
2023-01-27T12:50:19.876Z,13.30
2023-01-27T12:51:19.847Z,13.30
2023-01-27T12:52:19.788Z,13.00
2023-01-27T12:53:19.769Z,12.90
2023-01-27T12:54:19.732Z,12.60
2023-01-27T12:55:19.667Z,12.30